sensor_id;sensor_type;location;lat;lon;timestamp;temperature;humidity
15296;DHT22;7749;49.964;7.890;2023-09-07T00:00:31;19.20;1.00
15296;DHT22;7749;49.964;7.890;2023-09-07T00:02:59;19.10;1.00
15296;DHT22;7749;49.964;7.890;2023-09-07T00:05:27;19.10;1.00
15296;DHT22;7749;49.964;7.890;2023-09-07T00:07:54;19.10;1.00
15296;DHT22;7749;49.964;7.890;2023-09-07T00:10:23;19.00;1.00
15296;DHT22;7749;49.964;7.890;2023-09-07T00:12:53;19.00;1.00
15296;DHT22;7749;49.964;7.890;2023-09-07T00:15:20;19.00;1.00
15296;DHT22;7749;49.964;7.890;2023-09-07T00:17:48;18.90;1.00
15296;DHT22;7749;49.964;7.890;2023-09-07T00:20:16;19.00;1.00
15296;DHT22;7749;49.964;7.890;2023-09-07T00:22:45;19.00;1.00
15296;DHT22;7749;49.964;7.890;2023-09-07T00:25:12;18.90;1.00
15296;DHT22;7749;49.964;7.890;2023-09-07T00:27:41;18.90;1.00
15296;DHT22;7749;49.964;7.890;2023-09-07T00:30:09;18.80;1.00
15296;DHT22;7749;49.964;7.890;2023-09-07T00:32:37;18.80;1.00
15296;DHT22;7749;49.964;7.890;2023-09-07T00:35:05;18.80;1.00
15296;DHT22;7749;49.964;7.890;2023-09-07T00:37:33;18.80;1.00
15296;DHT22;7749;49.964;7.890;2023-09-07T00:40:01;18.70;1.00
15296;DHT22;7749;49.964;7.890;2023-09-07T00:42:29;18.70;1.00
15296;DHT22;7749;49.964;7.890;2023-09-07T00:44:56;18.60;1.00
15296;DHT22;7749;49.964;7.890;2023-09-07T00:47:23;18.60;1.00
15296;DHT22;7749;49.964;7.890;2023-09-07T00:49:51;18.50;1.00
15296;DHT22;7749;49.964;7.890;2023-09-07T00:52:19;18.50;1.00
15296;DHT22;7749;49.964;7.890;2023-09-07T00:54:47;18.50;1.00
15296;DHT22;7749;49.964;7.890;2023-09-07T00:57:15;18.50;1.00
15296;DHT22;7749;49.964;7.890;2023-09-07T00:59:42;18.50;1.00
15296;DHT22;7749;49.964;7.890;2023-09-07T01:02:09;18.50;1.00
15296;DHT22;7749;49.964;7.890;2023-09-07T01:04:38;18.50;1.00
15296;DHT22;7749;49.964;7.890;2023-09-07T01:07:18;18.40;1.00
15296;DHT22;7749;49.964;7.890;2023-09-07T01:09:51;18.30;1.00
15296;DHT22;7749;49.964;7.890;2023-09-07T01:12:19;18.20;1.00
15296;DHT22;7749;49.964;7.890;2023-09-07T01:14:47;18.20;1.00
15296;DHT22;7749;49.964;7.890;2023-09-07T01:17:15;18.20;1.00
15296;DHT22;7749;49.964;7.890;2023-09-07T01:19:44;18.20;1.00
15296;DHT22;7749;49.964;7.890;2023-09-07T01:22:13;18.20;1.00
15296;DHT22;7749;49.964;7.890;2023-09-07T01:24:42;18.10;1.00
15296;DHT22;7749;49.964;7.890;2023-09-07T01:27:11;18.20;1.00
15296;DHT22;7749;49.964;7.890;2023-09-07T01:29:40;18.20;1.00
15296;DHT22;7749;49.964;7.890;2023-09-07T01:32:08;18.10;1.00
15296;DHT22;7749;49.964;7.890;2023-09-07T01:34:40;18.10;1.00
15296;DHT22;7749;49.964;7.890;2023-09-07T01:37:08;18.10;1.00
15296;DHT22;7749;49.964;7.890;2023-09-07T01:39:36;18.00;1.00
15296;DHT22;7749;49.964;7.890;2023-09-07T01:42:04;18.00;1.00
15296;DHT22;7749;49.964;7.890;2023-09-07T01:44:31;17.90;1.00
15296;DHT22;7749;49.964;7.890;2023-09-07T01:46:59;17.90;1.70
15296;DHT22;7749;49.964;7.890;2023-09-07T01:49:27;17.90;4.50
15296;DHT22;7749;49.964;7.890;2023-09-07T01:51:54;17.90;8.90
15296;DHT22;7749;49.964;7.890;2023-09-07T01:54:22;17.90;1.00
15296;DHT22;7749;49.964;7.890;2023-09-07T01:56:49;17.90;1.00
15296;DHT22;7749;49.964;7.890;2023-09-07T01:59:17;17.90;1.00
15296;DHT22;7749;49.964;7.890;2023-09-07T02:01:44;17.90;1.00
15296;DHT22;7749;49.964;7.890;2023-09-07T02:04:12;17.80;1.00
15296;DHT22;7749;49.964;7.890;2023-09-07T02:06:39;17.80;1.00
15296;DHT22;7749;49.964;7.890;2023-09-07T02:09:07;17.80;1.00
15296;DHT22;7749;49.964;7.890;2023-09-07T02:11:35;17.70;1.00
15296;DHT22;7749;49.964;7.890;2023-09-07T02:14:02;17.70;1.00
15296;DHT22;7749;49.964;7.890;2023-09-07T02:16:30;17.70;1.00
15296;DHT22;7749;49.964;7.890;2023-09-07T02:19:05;17.70;1.00
15296;DHT22;7749;49.964;7.890;2023-09-07T02:21:33;17.70;1.00
15296;DHT22;7749;49.964;7.890;2023-09-07T02:24:01;17.70;1.00
15296;DHT22;7749;49.964;7.890;2023-09-07T02:26:28;17.60;1.00
15296;DHT22;7749;49.964;7.890;2023-09-07T02:28:56;17.60;5.20
15296;DHT22;7749;49.964;7.890;2023-09-07T02:31:23;17.50;5.60
15296;DHT22;7749;49.964;7.890;2023-09-07T02:33:51;17.50;8.10
15296;DHT22;7749;49.964;7.890;2023-09-07T02:36:18;17.40;22.10
15296;DHT22;7749;49.964;7.890;2023-09-07T02:38:46;17.40;33.60
15296;DHT22;7749;49.964;7.890;2023-09-07T02:41:13;17.40;22.10
15296;DHT22;7749;49.964;7.890;2023-09-07T02:43:41;17.40;23.60
15296;DHT22;7749;49.964;7.890;2023-09-07T02:46:08;17.40;38.20
15296;DHT22;7749;49.964;7.890;2023-09-07T02:48:36;17.30;31.00
15296;DHT22;7749;49.964;7.890;2023-09-07T02:51:04;17.30;38.80
15296;DHT22;7749;49.964;7.890;2023-09-07T02:53:31;17.30;57.60
15296;DHT22;7749;49.964;7.890;2023-09-07T02:55:59;17.30;73.00
15296;DHT22;7749;49.964;7.890;2023-09-07T02:58:30;17.30;38.40
15296;DHT22;7749;49.964;7.890;2023-09-07T03:00:58;17.30;38.30
15296;DHT22;7749;49.964;7.890;2023-09-07T03:03:25;17.30;34.70
15296;DHT22;7749;49.964;7.890;2023-09-07T03:05:53;17.30;40.60
15296;DHT22;7749;49.964;7.890;2023-09-07T03:08:20;17.30;67.60
15296;DHT22;7749;49.964;7.890;2023-09-07T03:10:48;17.30;70.40
15296;DHT22;7749;49.964;7.890;2023-09-07T03:13:15;17.30;67.50
15296;DHT22;7749;49.964;7.890;2023-09-07T03:15:43;17.30;39.60
15296;DHT22;7749;49.964;7.890;2023-09-07T03:18:11;17.30;44.20
15296;DHT22;7749;49.964;7.890;2023-09-07T03:20:39;17.20;30.30
15296;DHT22;7749;49.964;7.890;2023-09-07T03:23:06;17.20;38.10
15296;DHT22;7749;49.964;7.890;2023-09-07T03:25:33;17.20;47.90
15296;DHT22;7749;49.964;7.890;2023-09-07T03:28:01;17.10;50.30
15296;DHT22;7749;49.964;7.890;2023-09-07T03:30:29;17.10;69.20
15296;DHT22;7749;49.964;7.890;2023-09-07T03:32:56;17.00;52.40
15296;DHT22;7749;49.964;7.890;2023-09-07T03:35:24;17.00;58.20
15296;DHT22;7749;49.964;7.890;2023-09-07T03:37:51;17.00;86.90
15296;DHT22;7749;49.964;7.890;2023-09-07T03:40:19;16.90;91.30
15296;DHT22;7749;49.964;7.890;2023-09-07T03:42:46;16.90;77.30
15296;DHT22;7749;49.964;7.890;2023-09-07T03:45:14;16.90;98.00
15296;DHT22;7749;49.964;7.890;2023-09-07T03:47:42;16.90;94.90
15296;DHT22;7749;49.964;7.890;2023-09-07T03:50:10;16.90;93.70
15296;DHT22;7749;49.964;7.890;2023-09-07T03:52:38;16.80;91.30
15296;DHT22;7749;49.964;7.890;2023-09-07T03:55:06;16.90;93.30
15296;DHT22;7749;49.964;7.890;2023-09-07T03:57:34;16.90;96.00
15296;DHT22;7749;49.964;7.890;2023-09-07T04:00:01;16.90;97.10
15296;DHT22;7749;49.964;7.890;2023-09-07T04:02:29;16.80;99.90
15296;DHT22;7749;49.964;7.890;2023-09-07T04:04:57;16.80;99.90
15296;DHT22;7749;49.964;7.890;2023-09-07T04:07:24;16.80;99.90
15296;DHT22;7749;49.964;7.890;2023-09-07T04:09:52;16.80;99.90
15296;DHT22;7749;49.964;7.890;2023-09-07T04:12:20;16.80;89.00
15296;DHT22;7749;49.964;7.890;2023-09-07T04:14:48;16.80;81.90
15296;DHT22;7749;49.964;7.890;2023-09-07T04:17:15;16.70;90.90
15296;DHT22;7749;49.964;7.890;2023-09-07T04:19:43;16.70;94.90
15296;DHT22;7749;49.964;7.890;2023-09-07T04:22:11;16.70;98.40
15296;DHT22;7749;49.964;7.890;2023-09-07T04:24:39;16.70;94.60
15296;DHT22;7749;49.964;7.890;2023-09-07T04:27:06;16.60;99.90
15296;DHT22;7749;49.964;7.890;2023-09-07T04:29:34;16.70;99.90
15296;DHT22;7749;49.964;7.890;2023-09-07T04:32:01;16.60;99.90
15296;DHT22;7749;49.964;7.890;2023-09-07T04:34:29;16.60;99.90
15296;DHT22;7749;49.964;7.890;2023-09-07T04:36:57;16.60;99.90
15296;DHT22;7749;49.964;7.890;2023-09-07T04:39:24;16.60;99.90
15296;DHT22;7749;49.964;7.890;2023-09-07T04:41:51;16.60;99.90
15296;DHT22;7749;49.964;7.890;2023-09-07T04:44:19;16.60;99.90
15296;DHT22;7749;49.964;7.890;2023-09-07T04:46:47;16.60;99.90
15296;DHT22;7749;49.964;7.890;2023-09-07T04:49:15;16.60;99.90
15296;DHT22;7749;49.964;7.890;2023-09-07T04:51:42;16.50;99.90
15296;DHT22;7749;49.964;7.890;2023-09-07T04:54:10;16.50;99.90
15296;DHT22;7749;49.964;7.890;2023-09-07T04:56:37;16.50;99.90
15296;DHT22;7749;49.964;7.890;2023-09-07T04:59:05;16.50;99.90
15296;DHT22;7749;49.964;7.890;2023-09-07T05:01:32;16.60;99.90
15296;DHT22;7749;49.964;7.890;2023-09-07T05:04:00;16.60;99.90
15296;DHT22;7749;49.964;7.890;2023-09-07T05:06:31;16.60;99.90
15296;DHT22;7749;49.964;7.890;2023-09-07T05:09:01;16.60;99.90
15296;DHT22;7749;49.964;7.890;2023-09-07T05:11:29;16.60;99.90
15296;DHT22;7749;49.964;7.890;2023-09-07T05:13:57;16.60;99.90
15296;DHT22;7749;49.964;7.890;2023-09-07T05:16:32;16.60;99.90
15296;DHT22;7749;49.964;7.890;2023-09-07T05:19:00;16.60;99.90
15296;DHT22;7749;49.964;7.890;2023-09-07T05:21:27;16.70;99.90
15296;DHT22;7749;49.964;7.890;2023-09-07T05:23:55;16.70;99.90
15296;DHT22;7749;49.964;7.890;2023-09-07T05:26:23;16.80;99.90
15296;DHT22;7749;49.964;7.890;2023-09-07T05:28:52;16.80;99.90
15296;DHT22;7749;49.964;7.890;2023-09-07T05:31:19;16.90;99.90
15296;DHT22;7749;49.964;7.890;2023-09-07T05:33:47;16.90;99.90
15296;DHT22;7749;49.964;7.890;2023-09-07T05:36:15;17.00;99.90
15296;DHT22;7749;49.964;7.890;2023-09-07T05:38:42;17.00;99.90
15296;DHT22;7749;49.964;7.890;2023-09-07T05:41:09;17.10;99.90
15296;DHT22;7749;49.964;7.890;2023-09-07T05:43:37;17.10;99.90
15296;DHT22;7749;49.964;7.890;2023-09-07T05:46:04;17.20;99.90
15296;DHT22;7749;49.964;7.890;2023-09-07T05:48:32;17.20;99.90
15296;DHT22;7749;49.964;7.890;2023-09-07T05:51:00;17.30;99.90
15296;DHT22;7749;49.964;7.890;2023-09-07T05:53:27;17.40;99.90
15296;DHT22;7749;49.964;7.890;2023-09-07T05:55:55;17.40;99.90
15296;DHT22;7749;49.964;7.890;2023-09-07T05:58:22;17.40;99.90
15296;DHT22;7749;49.964;7.890;2023-09-07T06:00:50;17.50;99.90
15296;DHT22;7749;49.964;7.890;2023-09-07T06:03:17;17.60;99.90
15296;DHT22;7749;49.964;7.890;2023-09-07T06:05:45;17.70;99.90
15296;DHT22;7749;49.964;7.890;2023-09-07T06:08:12;17.80;99.90
15296;DHT22;7749;49.964;7.890;2023-09-07T06:10:40;17.80;91.00
15296;DHT22;7749;49.964;7.890;2023-09-07T06:13:08;17.90;83.20
15296;DHT22;7749;49.964;7.890;2023-09-07T06:15:35;17.90;58.80
15296;DHT22;7749;49.964;7.890;2023-09-07T06:18:03;18.00;50.00
15296;DHT22;7749;49.964;7.890;2023-09-07T06:20:30;18.00;59.40
15296;DHT22;7749;49.964;7.890;2023-09-07T06:22:58;18.10;45.60
15296;DHT22;7749;49.964;7.890;2023-09-07T06:25:25;18.00;54.20
15296;DHT22;7749;49.964;7.890;2023-09-07T06:27:54;18.10;59.50
15296;DHT22;7749;49.964;7.890;2023-09-07T06:30:21;18.20;53.00
15296;DHT22;7749;49.964;7.890;2023-09-07T06:32:49;18.30;38.90
15296;DHT22;7749;49.964;7.890;2023-09-07T06:35:18;18.40;99.90
15296;DHT22;7749;49.964;7.890;2023-09-07T06:37:46;18.40;99.90
15296;DHT22;7749;49.964;7.890;2023-09-07T06:40:13;18.40;99.90
15296;DHT22;7749;49.964;7.890;2023-09-07T06:42:42;18.40;99.90
15296;DHT22;7749;49.964;7.890;2023-09-07T06:45:10;18.50;99.90
15296;DHT22;7749;49.964;7.890;2023-09-07T06:47:38;18.60;99.90
15296;DHT22;7749;49.964;7.890;2023-09-07T06:50:05;18.60;99.90
15296;DHT22;7749;49.964;7.890;2023-09-07T06:52:33;18.70;99.90
15296;DHT22;7749;49.964;7.890;2023-09-07T06:55:01;18.80;99.90
15296;DHT22;7749;49.964;7.890;2023-09-07T06:57:28;18.90;99.90
15296;DHT22;7749;49.964;7.890;2023-09-07T06:59:56;19.00;99.90
15296;DHT22;7749;49.964;7.890;2023-09-07T07:02:23;19.20;99.90
15296;DHT22;7749;49.964;7.890;2023-09-07T07:04:51;19.20;99.90
15296;DHT22;7749;49.964;7.890;2023-09-07T07:07:19;19.30;99.90
15296;DHT22;7749;49.964;7.890;2023-09-07T07:09:46;19.40;99.90
15296;DHT22;7749;49.964;7.890;2023-09-07T07:12:14;19.50;99.90
15296;DHT22;7749;49.964;7.890;2023-09-07T07:14:41;19.60;99.90
15296;DHT22;7749;49.964;7.890;2023-09-07T07:17:08;19.70;1.00
15296;DHT22;7749;49.964;7.890;2023-09-07T07:19:36;19.80;1.00
15296;DHT22;7749;49.964;7.890;2023-09-07T07:22:04;19.90;1.00
15296;DHT22;7749;49.964;7.890;2023-09-07T07:24:31;20.00;1.00
15296;DHT22;7749;49.964;7.890;2023-09-07T07:26:59;20.10;1.00
15296;DHT22;7749;49.964;7.890;2023-09-07T07:29:26;20.20;1.00
15296;DHT22;7749;49.964;7.890;2023-09-07T07:31:54;20.20;1.00
15296;DHT22;7749;49.964;7.890;2023-09-07T07:34:22;20.40;1.00
15296;DHT22;7749;49.964;7.890;2023-09-07T07:36:49;20.60;1.00
15296;DHT22;7749;49.964;7.890;2023-09-07T07:39:17;20.60;1.00
15296;DHT22;7749;49.964;7.890;2023-09-07T07:41:44;20.70;99.90
15296;DHT22;7749;49.964;7.890;2023-09-07T07:44:13;20.70;99.90
15296;DHT22;7749;49.964;7.890;2023-09-07T07:46:40;20.80;99.90
15296;DHT22;7749;49.964;7.890;2023-09-07T07:49:08;20.80;99.90
15296;DHT22;7749;49.964;7.890;2023-09-07T07:51:36;20.80;99.90
15296;DHT22;7749;49.964;7.890;2023-09-07T07:54:04;20.90;99.90
15296;DHT22;7749;49.964;7.890;2023-09-07T07:56:32;21.00;99.90
15296;DHT22;7749;49.964;7.890;2023-09-07T07:59:00;21.20;99.90
15296;DHT22;7749;49.964;7.890;2023-09-07T08:01:28;21.30;99.90
15296;DHT22;7749;49.964;7.890;2023-09-07T08:03:56;21.40;99.90
15296;DHT22;7749;49.964;7.890;2023-09-07T08:06:26;21.60;99.90
15296;DHT22;7749;49.964;7.890;2023-09-07T08:08:54;21.70;99.90
15296;DHT22;7749;49.964;7.890;2023-09-07T08:11:21;21.90;99.90
15296;DHT22;7749;49.964;7.890;2023-09-07T08:13:49;21.90;99.90
15296;DHT22;7749;49.964;7.890;2023-09-07T08:16:16;22.10;99.90
15296;DHT22;7749;49.964;7.890;2023-09-07T08:18:45;22.20;99.90
15296;DHT22;7749;49.964;7.890;2023-09-07T08:21:14;22.40;99.90
15296;DHT22;7749;49.964;7.890;2023-09-07T08:23:41;22.50;99.90
15296;DHT22;7749;49.964;7.890;2023-09-07T08:26:09;22.70;99.90
15296;DHT22;7749;49.964;7.890;2023-09-07T08:28:37;22.70;99.90
15296;DHT22;7749;49.964;7.890;2023-09-07T08:31:04;22.80;99.90
15296;DHT22;7749;49.964;7.890;2023-09-07T08:33:32;22.90;99.90
15296;DHT22;7749;49.964;7.890;2023-09-07T08:36:07;23.00;99.90
15296;DHT22;7749;49.964;7.890;2023-09-07T08:38:35;23.10;99.90
15296;DHT22;7749;49.964;7.890;2023-09-07T08:41:03;23.10;99.90
15296;DHT22;7749;49.964;7.890;2023-09-07T08:43:39;23.20;99.90
15296;DHT22;7749;49.964;7.890;2023-09-07T08:46:18;23.30;99.90
15296;DHT22;7749;49.964;7.890;2023-09-07T08:48:49;23.40;99.90
15296;DHT22;7749;49.964;7.890;2023-09-07T08:51:18;23.40;99.90
15296;DHT22;7749;49.964;7.890;2023-09-07T08:53:47;23.40;99.90
15296;DHT22;7749;49.964;7.890;2023-09-07T08:56:16;23.60;99.90
15296;DHT22;7749;49.964;7.890;2023-09-07T08:58:44;23.70;99.90
15296;DHT22;7749;49.964;7.890;2023-09-07T09:01:12;23.70;99.90
15296;DHT22;7749;49.964;7.890;2023-09-07T09:03:42;23.80;99.90
15296;DHT22;7749;49.964;7.890;2023-09-07T09:06:11;23.80;99.90
15296;DHT22;7749;49.964;7.890;2023-09-07T09:08:42;23.80;99.90
15296;DHT22;7749;49.964;7.890;2023-09-07T09:11:10;23.80;99.90
15296;DHT22;7749;49.964;7.890;2023-09-07T09:13:39;23.90;99.90
15296;DHT22;7749;49.964;7.890;2023-09-07T09:16:08;24.10;99.90
15296;DHT22;7749;49.964;7.890;2023-09-07T09:18:36;24.20;99.90
15296;DHT22;7749;49.964;7.890;2023-09-07T09:21:04;24.40;99.90
15296;DHT22;7749;49.964;7.890;2023-09-07T09:23:36;24.40;99.90
15296;DHT22;7749;49.964;7.890;2023-09-07T09:26:04;24.50;99.90
15296;DHT22;7749;49.964;7.890;2023-09-07T09:28:33;24.40;99.90
15296;DHT22;7749;49.964;7.890;2023-09-07T09:31:02;24.50;99.90
15296;DHT22;7749;49.964;7.890;2023-09-07T09:33:31;24.30;99.90
15296;DHT22;7749;49.964;7.890;2023-09-07T09:35:59;24.40;99.90
15296;DHT22;7749;49.964;7.890;2023-09-07T09:38:27;24.60;99.90
15296;DHT22;7749;49.964;7.890;2023-09-07T09:40:55;24.80;99.90
15296;DHT22;7749;49.964;7.890;2023-09-07T09:43:24;24.90;99.90
15296;DHT22;7749;49.964;7.890;2023-09-07T09:45:53;25.10;99.90
15296;DHT22;7749;49.964;7.890;2023-09-07T09:48:20;25.20;99.90
15296;DHT22;7749;49.964;7.890;2023-09-07T09:50:49;25.30;99.90
15296;DHT22;7749;49.964;7.890;2023-09-07T09:53:17;25.40;99.90
15296;DHT22;7749;49.964;7.890;2023-09-07T09:55:50;25.60;99.90
15296;DHT22;7749;49.964;7.890;2023-09-07T09:58:19;25.70;99.90
15296;DHT22;7749;49.964;7.890;2023-09-07T10:00:50;25.80;99.90
15296;DHT22;7749;49.964;7.890;2023-09-07T10:03:28;26.00;99.90
15296;DHT22;7749;49.964;7.890;2023-09-07T10:06:10;26.10;99.90
15296;DHT22;7749;49.964;7.890;2023-09-07T10:08:38;26.20;99.90
15296;DHT22;7749;49.964;7.890;2023-09-07T10:11:09;26.30;99.90
15296;DHT22;7749;49.964;7.890;2023-09-07T10:13:39;26.40;99.90
15296;DHT22;7749;49.964;7.890;2023-09-07T10:16:07;26.50;99.90
15296;DHT22;7749;49.964;7.890;2023-09-07T10:18:36;26.50;99.90
15296;DHT22;7749;49.964;7.890;2023-09-07T10:21:05;26.50;99.90
15296;DHT22;7749;49.964;7.890;2023-09-07T10:23:39;26.60;99.90
15296;DHT22;7749;49.964;7.890;2023-09-07T10:26:12;26.70;99.90
15296;DHT22;7749;49.964;7.890;2023-09-07T10:28:40;26.80;99.90
15296;DHT22;7749;49.964;7.890;2023-09-07T10:31:14;26.90;99.90
15296;DHT22;7749;49.964;7.890;2023-09-07T10:33:42;27.10;99.90
15296;DHT22;7749;49.964;7.890;2023-09-07T10:36:24;27.10;99.90
15296;DHT22;7749;49.964;7.890;2023-09-07T10:38:54;27.30;99.90
15296;DHT22;7749;49.964;7.890;2023-09-07T10:41:22;27.40;99.90
15296;DHT22;7749;49.964;7.890;2023-09-07T10:43:52;27.60;99.90
15296;DHT22;7749;49.964;7.890;2023-09-07T10:46:21;27.90;99.90
15296;DHT22;7749;49.964;7.890;2023-09-07T10:48:50;27.90;99.90
15296;DHT22;7749;49.964;7.890;2023-09-07T10:51:19;28.10;99.90
15296;DHT22;7749;49.964;7.890;2023-09-07T10:53:47;28.10;99.90
15296;DHT22;7749;49.964;7.890;2023-09-07T10:56:15;28.00;99.90
15296;DHT22;7749;49.964;7.890;2023-09-07T10:58:42;28.00;99.90
15296;DHT22;7749;49.964;7.890;2023-09-07T11:01:11;28.10;99.90
15296;DHT22;7749;49.964;7.890;2023-09-07T11:03:41;28.70;99.90
15296;DHT22;7749;49.964;7.890;2023-09-07T11:06:19;30.90;99.90
15296;DHT22;7749;49.964;7.890;2023-09-07T11:08:49;33.00;99.40
15296;DHT22;7749;49.964;7.890;2023-09-07T11:11:17;35.20;92.40
15296;DHT22;7749;49.964;7.890;2023-09-07T11:13:45;36.70;82.10
15296;DHT22;7749;49.964;7.890;2023-09-07T11:16:12;37.70;73.70
15296;DHT22;7749;49.964;7.890;2023-09-07T11:18:40;38.20;66.30
15296;DHT22;7749;49.964;7.890;2023-09-07T11:21:09;38.50;61.80
15296;DHT22;7749;49.964;7.890;2023-09-07T11:23:37;38.90;99.90
15296;DHT22;7749;49.964;7.890;2023-09-07T11:26:08;39.20;99.90
15296;DHT22;7749;49.964;7.890;2023-09-07T11:28:35;39.10;99.90
15296;DHT22;7749;49.964;7.890;2023-09-07T11:31:04;39.50;99.90
15296;DHT22;7749;49.964;7.890;2023-09-07T11:33:32;39.60;99.90
15296;DHT22;7749;49.964;7.890;2023-09-07T11:36:02;39.80;99.90
15296;DHT22;7749;49.964;7.890;2023-09-07T11:38:35;40.80;99.90
15296;DHT22;7749;49.964;7.890;2023-09-07T11:41:03;40.90;99.90
15296;DHT22;7749;49.964;7.890;2023-09-07T11:43:31;40.80;99.90
15296;DHT22;7749;49.964;7.890;2023-09-07T11:46:01;41.50;99.90
15296;DHT22;7749;49.964;7.890;2023-09-07T11:48:31;41.10;99.90
15296;DHT22;7749;49.964;7.890;2023-09-07T11:51:00;40.30;99.90
15296;DHT22;7749;49.964;7.890;2023-09-07T11:53:28;41.00;99.90
15296;DHT22;7749;49.964;7.890;2023-09-07T11:55:57;40.40;99.90
15296;DHT22;7749;49.964;7.890;2023-09-07T11:58:25;39.50;99.90
15296;DHT22;7749;49.964;7.890;2023-09-07T12:00:57;38.20;99.90
15296;DHT22;7749;49.964;7.890;2023-09-07T12:03:24;37.20;99.90
15296;DHT22;7749;49.964;7.890;2023-09-07T12:05:52;37.70;99.90
15296;DHT22;7749;49.964;7.890;2023-09-07T12:08:20;39.00;99.90
15296;DHT22;7749;49.964;7.890;2023-09-07T12:10:47;38.80;99.90
15296;DHT22;7749;49.964;7.890;2023-09-07T12:13:15;39.70;99.90
15296;DHT22;7749;49.964;7.890;2023-09-07T12:15:42;39.60;99.90
15296;DHT22;7749;49.964;7.890;2023-09-07T12:18:10;38.70;99.90
15296;DHT22;7749;49.964;7.890;2023-09-07T12:20:37;39.30;99.90
15296;DHT22;7749;49.964;7.890;2023-09-07T12:23:05;39.40;99.90
15296;DHT22;7749;49.964;7.890;2023-09-07T12:25:33;39.20;99.90
15296;DHT22;7749;49.964;7.890;2023-09-07T12:28:00;40.10;99.90
15296;DHT22;7749;49.964;7.890;2023-09-07T12:30:28;40.90;99.90
15296;DHT22;7749;49.964;7.890;2023-09-07T12:32:55;40.70;99.90
15296;DHT22;7749;49.964;7.890;2023-09-07T12:35:23;41.40;99.90
15296;DHT22;7749;49.964;7.890;2023-09-07T12:37:51;41.80;99.90
15296;DHT22;7749;49.964;7.890;2023-09-07T12:40:19;42.60;99.90
15296;DHT22;7749;49.964;7.890;2023-09-07T12:42:47;42.50;99.90
15296;DHT22;7749;49.964;7.890;2023-09-07T12:45:14;42.10;99.90
15296;DHT22;7749;49.964;7.890;2023-09-07T12:47:42;42.50;99.90
15296;DHT22;7749;49.964;7.890;2023-09-07T12:50:10;43.40;99.90
15296;DHT22;7749;49.964;7.890;2023-09-07T12:52:38;44.30;99.90
15296;DHT22;7749;49.964;7.890;2023-09-07T12:55:07;43.90;99.90
15296;DHT22;7749;49.964;7.890;2023-09-07T12:57:35;44.20;99.90
15296;DHT22;7749;49.964;7.890;2023-09-07T13:00:06;43.60;99.90
15296;DHT22;7749;49.964;7.890;2023-09-07T13:02:33;44.00;99.90
15296;DHT22;7749;49.964;7.890;2023-09-07T13:05:01;43.90;99.90
15296;DHT22;7749;49.964;7.890;2023-09-07T13:07:32;44.10;99.90
15296;DHT22;7749;49.964;7.890;2023-09-07T13:10:02;44.60;99.90
15296;DHT22;7749;49.964;7.890;2023-09-07T13:12:32;45.10;98.40
15296;DHT22;7749;49.964;7.890;2023-09-07T13:14:59;45.40;94.60
15296;DHT22;7749;49.964;7.890;2023-09-07T13:17:27;45.60;93.30
15296;DHT22;7749;49.964;7.890;2023-09-07T13:19:54;45.30;91.10
15296;DHT22;7749;49.964;7.890;2023-09-07T13:22:22;45.70;88.20
15296;DHT22;7749;49.964;7.890;2023-09-07T13:24:50;45.50;84.50
15296;DHT22;7749;49.964;7.890;2023-09-07T13:27:17;45.40;79.40
15296;DHT22;7749;49.964;7.890;2023-09-07T13:29:45;44.50;84.50
15296;DHT22;7749;49.964;7.890;2023-09-07T13:32:13;44.40;84.60
15296;DHT22;7749;49.964;7.890;2023-09-07T13:34:40;44.20;85.10
15296;DHT22;7749;49.964;7.890;2023-09-07T13:37:08;43.80;84.70
15296;DHT22;7749;49.964;7.890;2023-09-07T13:39:35;44.30;83.30
15296;DHT22;7749;49.964;7.890;2023-09-07T13:42:03;44.50;79.80
15296;DHT22;7749;49.964;7.890;2023-09-07T13:44:31;45.30;75.30
15296;DHT22;7749;49.964;7.890;2023-09-07T13:46:58;45.00;72.80
15296;DHT22;7749;49.964;7.890;2023-09-07T13:49:25;45.20;68.10
15296;DHT22;7749;49.964;7.890;2023-09-07T13:51:53;45.30;65.30
15296;DHT22;7749;49.964;7.890;2023-09-07T13:54:20;45.50;60.40
15296;DHT22;7749;49.964;7.890;2023-09-07T13:56:48;45.00;62.60
15296;DHT22;7749;49.964;7.890;2023-09-07T13:59:15;44.90;60.10
15296;DHT22;7749;49.964;7.890;2023-09-07T14:01:43;44.50;58.80
15296;DHT22;7749;49.964;7.890;2023-09-07T14:04:10;44.90;59.10
15296;DHT22;7749;49.964;7.890;2023-09-07T14:06:38;45.50;56.00
15296;DHT22;7749;49.964;7.890;2023-09-07T14:09:05;45.20;55.60
15296;DHT22;7749;49.964;7.890;2023-09-07T14:11:34;44.90;53.30
15296;DHT22;7749;49.964;7.890;2023-09-07T14:14:01;45.60;48.50
15296;DHT22;7749;49.964;7.890;2023-09-07T14:16:29;45.40;47.80
15296;DHT22;7749;49.964;7.890;2023-09-07T14:19:07;45.80;37.10
15296;DHT22;7749;49.964;7.890;2023-09-07T14:21:35;46.40;34.70
15296;DHT22;7749;49.964;7.890;2023-09-07T14:24:02;45.20;38.00
15296;DHT22;7749;49.964;7.890;2023-09-07T14:26:31;45.20;40.30
15296;DHT22;7749;49.964;7.890;2023-09-07T14:28:59;45.60;36.10
15296;DHT22;7749;49.964;7.890;2023-09-07T14:31:26;46.00;33.00
15296;DHT22;7749;49.964;7.890;2023-09-07T14:33:54;45.80;32.50
15296;DHT22;7749;49.964;7.890;2023-09-07T14:36:21;46.00;29.30
15296;DHT22;7749;49.964;7.890;2023-09-07T14:38:49;45.70;27.90
15296;DHT22;7749;49.964;7.890;2023-09-07T14:41:16;45.40;30.50
15296;DHT22;7749;49.964;7.890;2023-09-07T14:43:49;45.60;28.70
15296;DHT22;7749;49.964;7.890;2023-09-07T14:46:17;46.00;27.00
15296;DHT22;7749;49.964;7.890;2023-09-07T14:48:44;45.90;27.20
15296;DHT22;7749;49.964;7.890;2023-09-07T14:51:15;45.30;27.00
15296;DHT22;7749;49.964;7.890;2023-09-07T14:53:43;45.30;29.80
15296;DHT22;7749;49.964;7.890;2023-09-07T14:56:12;45.00;29.00
15296;DHT22;7749;49.964;7.890;2023-09-07T14:58:39;45.30;26.20
15296;DHT22;7749;49.964;7.890;2023-09-07T15:01:07;46.10;24.40
15296;DHT22;7749;49.964;7.890;2023-09-07T15:03:34;46.10;21.30
15296;DHT22;7749;49.964;7.890;2023-09-07T15:06:07;46.30;19.40
15296;DHT22;7749;49.964;7.890;2023-09-07T15:08:39;46.40;19.30
15296;DHT22;7749;49.964;7.890;2023-09-07T15:11:06;46.40;17.60
15296;DHT22;7749;49.964;7.890;2023-09-07T15:13:34;46.60;14.40
15296;DHT22;7749;49.964;7.890;2023-09-07T15:16:01;46.50;14.80
15296;DHT22;7749;49.964;7.890;2023-09-07T15:18:29;46.50;13.90
15296;DHT22;7749;49.964;7.890;2023-09-07T15:20:57;46.40;11.80
15296;DHT22;7749;49.964;7.890;2023-09-07T15:23:25;46.20;12.70
15296;DHT22;7749;49.964;7.890;2023-09-07T15:25:54;46.10;11.70
15296;DHT22;7749;49.964;7.890;2023-09-07T15:28:22;45.40;14.20
15296;DHT22;7749;49.964;7.890;2023-09-07T15:30:49;45.20;15.90
15296;DHT22;7749;49.964;7.890;2023-09-07T15:33:17;45.20;15.90
15296;DHT22;7749;49.964;7.890;2023-09-07T15:35:44;45.10;17.00
15296;DHT22;7749;49.964;7.890;2023-09-07T15:38:12;44.80;15.50
15296;DHT22;7749;49.964;7.890;2023-09-07T15:40:39;45.00;15.20
15296;DHT22;7749;49.964;7.890;2023-09-07T15:43:07;44.80;16.60
15296;DHT22;7749;49.964;7.890;2023-09-07T15:45:37;44.70;15.40
15296;DHT22;7749;49.964;7.890;2023-09-07T15:48:06;44.60;18.00
15296;DHT22;7749;49.964;7.890;2023-09-07T15:50:33;44.40;16.60
15296;DHT22;7749;49.964;7.890;2023-09-07T15:53:01;44.10;17.70
15296;DHT22;7749;49.964;7.890;2023-09-07T15:55:29;43.80;16.90